Time;durP1;ratioP1;P1;durP2;ratioP2;P2;SDS_P1;SDS_P2;PMS_P1;PMS_P2;Temp;Humidity;BMP_temperature;BMP_pressure;BME280_temperature;BME280_humidity;BME280_pressure;Samples;Min_cycle;Max_cycle;Signal;HPM_P1;HPM_P2
2022/06/13 00:02:57;;;;;;;1.38;1.00;;;26.70;46.50;;;;;;6175131;28;20434;-69
2022/06/13 00:05:58;;;;;;;4.40;1.20;;;26.70;46.50;;;;;;6180683;28;20534;-69
2022/06/13 00:08:59;;;;;;;5.97;1.20;;;26.60;46.40;;;;;;6201834;28;20030;-69
2022/06/13 00:12:00;;;;;;;2.40;1.08;;;26.50;46.50;;;;;;6171317;28;20026;-69
2022/06/13 00:15:03;;;;;;;3.03;1.20;;;26.50;46.50;;;;;;6207665;28;20062;-69
2022/06/13 00:18:03;;;;;;;5.80;1.45;;;26.50;46.70;;;;;;6186619;28;20105;-69
2022/06/13 00:21:05;;;;;;;4.20;1.02;;;26.40;46.70;;;;;;6184200;28;20045;-69
2022/06/13 00:24:07;;;;;;;1.27;1.17;;;26.40;46.70;;;;;;6187646;28;20466;-69
2022/06/13 00:27:09;;;;;;;1.65;1.00;;;26.40;46.80;;;;;;6209627;28;20026;-69
2022/06/13 00:30:11;;;;;;;1.17;1.05;;;26.30;46.80;;;;;;6203816;28;20026;-69
2022/06/13 00:33:12;;;;;;;3.22;0.90;;;26.30;46.80;;;;;;6200733;28;20093;-69
2022/06/13 00:36:14;;;;;;;1.33;1.00;;;26.20;46.70;;;;;;6183488;28;20364;-69
2022/06/13 00:39:15;;;;;;;1.27;1.17;;;26.20;46.70;;;;;;6178889;28;20030;-69
2022/06/13 00:42:20;;;;;;;1.20;1.00;;;26.10;46.80;;;;;;6185296;28;20025;-68
2022/06/13 00:45:24;;;;;;;2.45;1.38;;;26.10;47.10;;;;;;6193462;28;20402;-68
2022/06/13 00:48:29;;;;;;;1.20;1.10;;;26.00;47.50;;;;;;6176869;28;20036;-70
2022/06/13 00:51:34;;;;;;;2.25;1.30;;;26.00;47.90;;;;;;6206885;28;20336;-69
2022/06/13 00:54:39;;;;;;;3.75;1.40;;;25.90;48.60;;;;;;6180262;28;20018;-69
2022/06/13 00:57:41;;;;;;;2.72;1.25;;;25.90;48.50;;;;;;6201994;28;20495;-68
2022/06/13 01:00:46;;;;;;;1.83;1.33;;;25.90;48.50;;;;;;6200628;28;20030;-68
2022/06/13 01:03:48;;;;;;;1.23;1.00;;;25.90;48.80;;;;;;6184449;28;20030;-69
2022/06/13 01:06:50;;;;;;;1.63;1.38;;;25.80;49.00;;;;;;6194413;28;20030;-68
2022/06/13 01:13:13;;;;;;;1.92;1.30;;;25.70;49.20;;;;;;6204315;28;20406;-69
2022/06/13 01:16:36;;;;;;;2.63;1.20;;;25.60;49.20;;;;;;6172492;28;20057;-69
2022/06/13 01:20:19;;;;;;;1.48;1.23;;;25.50;49.10;;;;;;6185157;28;20022;-69
2022/06/13 01:23:44;;;;;;;3.78;1.10;;;25.50;49.10;;;;;;6126154;29;20032;-69
2022/06/13 01:27:08;;;;;;;1.58;1.20;;;25.50;49.10;;;;;;6118480;29;20473;-69
2022/06/13 01:30:33;;;;;;;3.53;1.20;;;25.60;49.30;;;;;;6131470;29;20130;-69
2022/06/13 01:33:55;;;;;;;2.30;1.13;;;25.50;49.30;;;;;;6128159;29;20039;-69
2022/06/13 01:37:23;;;;;;;2.58;1.10;;;25.50;49.40;;;;;;6120324;29;20047;-69
2022/06/13 01:40:51;;;;;;;2.90;1.48;;;25.50;50.00;;;;;;6126518;29;20327;-69
2022/06/13 01:44:01;;;;;;;3.25;1.58;;;25.50;50.00;;;;;;6126826;29;20438;-68
2022/06/13 01:47:15;;;;;;;2.45;1.30;;;25.40;50.00;;;;;;6116006;29;20028;-69
2022/06/13 01:50:32;;;;;;;1.42;1.20;;;25.40;50.80;;;;;;6127683;29;20035;-69
2022/06/13 01:53:59;;;;;;;1.75;1.23;;;25.40;50.40;;;;;;6126429;29;20044;-69
2022/06/13 01:57:09;;;;;;;2.55;1.20;;;25.40;50.40;;;;;;6121219;29;20039;-69
2022/06/13 02:00:11;;;;;;;5.40;1.02;;;25.30;50.30;;;;;;6165835;28;20035;-69
2022/06/13 02:03:31;;;;;;;4.10;1.10;;;25.20;50.30;;;;;;6185097;28;20037;-69
2022/06/13 02:06:44;;;;;;;2.45;1.08;;;25.10;50.30;;;;;;6196236;28;20105;-69
2022/06/13 02:09:54;;;;;;;1.95;1.13;;;25.10;50.30;;;;;;6189439;28;20022;-70
2022/06/13 02:13:03;;;;;;;1.30;1.13;;;25.00;50.30;;;;;;6185774;28;20068;-70
2022/06/13 02:16:15;;;;;;;1.52;1.08;;;25.00;50.30;;;;;;6178064;28;20389;-70
2022/06/13 02:19:51;;;;;;;2.85;1.27;;;25.00;50.40;;;;;;6187065;28;20030;-69
2022/06/13 02:22:57;;;;;;;1.85;1.08;;;25.00;50.40;;;;;;6108072;29;20075;-69
2022/06/13 02:26:04;;;;;;;3.08;1.20;;;25.00;50.20;;;;;;6078559;29;20350;-69
2022/06/13 02:29:25;;;;;;;1.52;1.10;;;25.00;50.10;;;;;;6104714;29;20038;-69
2022/06/13 02:32:41;;;;;;;1.58;0.98;;;25.00;50.10;;;;;;6100776;29;20407;-69
2022/06/13 02:35:48;;;;;;;2.17;1.20;;;25.00;50.00;;;;;;6094161;29;20445;-69
2022/06/13 02:39:00;;;;;;;1.35;1.10;;;25.00;49.90;;;;;;6105853;29;20119;-69
2022/06/13 02:42:09;;;;;;;5.03;1.08;;;25.00;49.90;;;;;;6095151;29;20116;-69
2022/06/13 02:45:22;;;;;;;1.70;1.25;;;25.00;49.90;;;;;;6099817;29;20386;-69
2022/06/13 02:48:46;;;;;;;1.20;0.90;;;25.00;49.80;;;;;;6104324;29;20031;-69
2022/06/13 02:52:32;;;;;;;1.55;1.13;;;25.00;49.80;;;;;;6093894;29;20180;-69
2022/06/13 02:55:46;;;;;;;2.22;1.15;;;24.90;49.60;;;;;;6091850;29;20129;-69
2022/06/13 02:59:06;;;;;;;5.30;1.45;;;24.90;49.70;;;;;;6140476;28;20037;-69
2022/06/13 03:02:13;;;;;;;4.38;1.27;;;24.90;49.80;;;;;;6202007;28;20069;-69
2022/06/13 03:05:59;;;;;;;1.88;1.10;;;24.80;49.80;;;;;;6182056;28;20034;-69
2022/06/13 03:09:05;;;;;;;3.22;1.27;;;24.80;49.80;;;;;;6201967;28;20041;-69
2022/06/13 03:12:28;;;;;;;3.05;1.05;;;24.80;49.80;;;;;;6189612;28;20026;-69
2022/06/13 03:15:50;;;;;;;1.80;1.13;;;24.70;50.00;;;;;;6195445;28;20050;-69
2022/06/13 03:18:57;;;;;;;4.82;1.50;;;24.70;50.40;;;;;;6198178;28;20064;-68
2022/06/13 03:22:14;;;;;;;2.42;1.30;;;24.70;50.70;;;;;;6179075;28;20033;-69
2022/06/13 03:25:31;;;;;;;5.45;1.65;;;24.70;51.10;;;;;;6194576;28;20026;-69
2022/06/13 03:28:47;;;;;;;2.25;1.33;;;24.70;51.40;;;;;;6173846;28;20094;-69
2022/06/13 03:31:53;;;;;;;2.92;1.63;;;24.70;51.90;;;;;;6181549;28;20026;-69
2022/06/13 03:34:58;;;;;;;2.25;1.65;;;24.60;52.00;;;;;;6199729;28;20037;-68
2022/06/13 03:38:03;;;;;;;1.90;1.33;;;24.60;52.10;;;;;;6198153;28;20053;-69
2022/06/13 03:41:06;;;;;;;7.22;1.35;;;24.60;52.00;;;;;;6183499;28;20033;-69
2022/06/13 03:44:28;;;;;;;1.75;1.25;;;24.50;51.90;;;;;;6196997;28;20026;-68
2022/06/13 03:47:52;;;;;;;4.38;1.23;;;24.50;51.90;;;;;;6173304;28;20022;-68
2022/06/13 03:51:06;;;;;;;2.15;1.38;;;24.50;51.80;;;;;;6180369;28;20121;-71
2022/06/13 03:54:34;;;;;;;9.82;1.40;;;24.40;51.70;;;;;;6194612;28;20042;-69
2022/06/13 03:57:41;;;;;;;2.63;1.23;;;24.40;51.70;;;;;;6190629;28;20029;-69
2022/06/13 04:00:54;;;;;;;3.45;1.30;;;24.40;51.60;;;;;;6180965;28;20073;-69
2022/06/13 04:03:56;;;;;;;6.78;1.48;;;24.40;51.70;;;;;;6205476;28;20053;-69
2022/06/13 04:06:59;;;;;;;2.33;1.40;;;24.40;51.70;;;;;;6199452;28;20019;-69
2022/06/13 04:10:03;;;;;;;2.83;1.38;;;24.40;51.70;;;;;;6177263;28;20097;-69
2022/06/13 04:13:26;;;;;;;4.13;1.45;;;24.30;51.70;;;;;;6199818;28;20034;-69
2022/06/13 04:16:49;;;;;;;3.40;1.75;;;24.30;52.10;;;;;;6186313;28;20033;-70
2022/06/13 04:20:13;;;;;;;4.10;1.65;;;24.30;52.20;;;;;;6180910;28;20038;-70
2022/06/13 04:23:32;;;;;;;3.80;1.20;;;24.20;52.40;;;;;;6125634;29;20533;-69
2022/06/13 04:27:04;;;;;;;2.63;1.58;;;24.20;52.70;;;;;;6133728;29;20071;-69
2022/06/13 04:30:15;;;;;;;4.97;1.88;;;24.20;52.90;;;;;;6122951;29;20036;-69
2022/06/13 04:34:00;;;;;;;3.75;2.03;;;24.10;52.90;;;;;;6121312;29;20036;-69
2022/06/13 04:37:04;;;;;;;3.15;1.95;;;24.10;53.00;;;;;;6105628;29;20087;-69
2022/06/13 04:40:08;;;;;;;2.80;1.63;;;24.20;53.00;;;;;;6107569;29;20462;-68
2022/06/13 04:43:13;;;;;;;6.47;1.80;;;24.20;53.00;;;;;;6104106;29;20056;-69
2022/06/13 04:46:18;;;;;;;3.33;2.08;;;24.20;53.60;;;;;;6093571;29;20029;-69
2022/06/13 04:49:22;;;;;;;3.70;1.67;;;24.20;53.10;;;;;;6104220;29;20074;-69
2022/06/13 04:52:30;;;;;;;2.00;1.58;;;24.20;53.00;;;;;;6104820;29;20032;-69
2022/06/13 04:55:45;;;;;;;2.35;1.30;;;24.20;52.90;;;;;;6090490;29;20592;-69
2022/06/13 04:58:48;;;;;;;2.03;1.60;;;24.30;52.80;;;;;;6117014;28;20058;-69
2022/06/13 05:01:49;;;;;;;1.92;1.45;;;24.30;52.60;;;;;;6160158;28;20040;-69
2022/06/13 05:04:51;;;;;;;2.47;1.70;;;24.30;52.40;;;;;;6163159;28;20467;-69
2022/06/13 05:07:52;;;;;;;3.63;1.65;;;24.30;52.40;;;;;;6184031;28;20034;-69
2022/06/13 05:11:10;;;;;;;6.30;2.88;;;24.30;52.40;;;;;;6207005;28;20114;-69
2022/06/13 05:14:23;;;;;;;3.03;1.90;;;24.20;52.40;;;;;;6181671;28;20525;-69
2022/06/13 05:17:48;;;;;;;2.97;1.70;;;24.30;52.50;;;;;;6200744;28;20488;-68
2022/06/13 05:21:11;;;;;;;9.30;1.85;;;24.30;52.40;;;;;;6191934;28;20026;-70
2022/06/13 05:24:36;;;;;;;3.45;1.52;;;24.30;52.40;;;;;;6201992;28;20018;-69
2022/06/13 05:27:37;;;;;;;5.80;1.92;;;24.30;52.20;;;;;;6196902;28;20105;-71
2022/06/13 05:30:52;;;;;;;2.50;1.35;;;24.40;52.10;;;;;;6185151;28;20128;-70
2022/06/13 05:33:53;;;;;;;7.80;1.73;;;24.50;51.90;;;;;;6202074;28;20356;-71
2022/06/13 05:36:54;;;;;;;8.25;2.00;;;24.50;51.50;;;;;;6184098;28;20394;-70
2022/06/13 05:39:56;;;;;;;3.17;1.27;;;24.60;51.30;;;;;;6183963;28;20022;-70
2022/06/13 05:42:57;;;;;;;2.63;1.65;;;24.70;50.90;;;;;;6199790;28;20037;-70
2022/06/13 05:45:58;;;;;;;1.92;1.33;;;24.80;50.50;;;;;;6198971;28;20031;-71
2022/06/13 05:48:59;;;;;;;4.55;1.40;;;24.80;50.30;;;;;;6204832;28;20074;-70
2022/06/13 05:52:00;;;;;;;4.90;1.55;;;24.90;50.20;;;;;;6180353;28;20058;-69
2022/06/13 05:55:01;;;;;;;5.05;3.28;;;24.90;49.90;;;;;;6185214;28;20098;-69
2022/06/13 05:58:02;;;;;;;6.32;2.25;;;25.00;49.60;;;;;;6201494;28;20490;-69
2022/06/13 06:01:05;;;;;;;5.75;1.85;;;25.00;49.50;;;;;;6203104;28;20033;-70
2022/06/13 06:04:07;;;;;;;3.72;2.13;;;25.10;49.50;;;;;;6198167;28;20014;-69
2022/06/13 06:07:08;;;;;;;4.63;1.77;;;25.20;49.40;;;;;;6200795;28;20051;-69
2022/06/13 06:10:30;;;;;;;6.93;1.95;;;25.20;49.10;;;;;;6180178;28;20400;-69
2022/06/13 06:13:31;;;;;;;3.03;1.83;;;25.30;49.30;;;;;;6176677;28;20144;-69
2022/06/13 06:16:32;;;;;;;3.60;1.60;;;25.30;49.20;;;;;;6203331;28;20034;-69
2022/06/13 06:19:33;;;;;;;5.80;1.60;;;25.40;49.20;;;;;;6179922;28;20026;-69
2022/06/13 06:22:33;;;;;;;2.42;1.77;;;25.50;49.00;;;;;;6178430;28;20214;-69
2022/06/13 06:25:35;;;;;;;7.00;1.65;;;25.60;48.90;;;;;;6180844;28;20022;-69
2022/06/13 06:28:36;;;;;;;3.72;1.70;;;25.70;48.70;;;;;;6199862;28;20030;-68
2022/06/13 06:31:37;;;;;;;4.43;1.60;;;25.80;48.50;;;;;;6171663;28;20155;-71
2022/06/13 06:34:38;;;;;;;10.60;1.50;;;25.90;48.20;;;;;;6179543;28;20038;-70
2022/06/13 06:37:39;;;;;;;3.17;1.50;;;25.90;48.10;;;;;;6193017;28;20053;-69
2022/06/13 06:40:41;;;;;;;2.53;1.60;;;25.80;48.00;;;;;;6199679;28;20025;-70
2022/06/13 06:43:42;;;;;;;2.85;1.65;;;25.70;48.00;;;;;;6184092;28;20026;-70
2022/06/13 06:46:43;;;;;;;7.63;1.73;;;25.70;48.10;;;;;;6201709;28;20022;-70
2022/06/13 06:49:47;;;;;;;2.50;1.55;;;25.60;47.90;;;;;;6182316;28;20045;-70
2022/06/13 06:52:48;;;;;;;4.07;1.70;;;25.80;48.00;;;;;;6199679;28;20026;-69
2022/06/13 07:02:29;;;;;;;3.70;1.60;;;26.20;47.50;;;;;;6174994;28;20051;-69
2022/06/13 07:05:30;;;;;;;5.65;1.50;;;26.40;47.30;;;;;;6198233;28;20027;-69
2022/06/13 07:08:31;;;;;;;3.97;1.63;;;26.40;47.10;;;;;;6201740;28;20458;-69
2022/06/13 07:14:54;;;;;;;12.82;2.10;;;26.80;46.40;;;;;;6197961;28;20038;-69
2022/06/13 07:17:55;;;;;;;7.15;1.77;;;27.20;45.70;;;;;;6161085;28;20022;-70
2022/06/13 07:20:56;;;;;;;3.47;1.95;;;27.40;45.20;;;;;;6192371;28;20027;-70
2022/06/13 07:23:57;;;;;;;8.55;1.58;;;27.50;44.90;;;;;;6202918;28;20030;-70
2022/06/13 07:26:58;;;;;;;6.57;1.45;;;27.50;44.60;;;;;;6195384;28;20355;-70
2022/06/13 07:29:59;;;;;;;5.47;1.90;;;27.50;44.60;;;;;;6177659;28;20076;-69
2022/06/13 07:33:00;;;;;;;9.50;1.55;;;27.50;44.50;;;;;;6200390;28;20034;-71
2022/06/13 07:36:01;;;;;;;2.30;1.38;;;27.50;44.40;;;;;;6172662;28;20030;-70
2022/06/13 07:39:02;;;;;;;3.45;1.65;;;27.60;44.40;;;;;;6181998;28;20370;-70
2022/06/13 07:42:04;;;;;;;1.92;1.30;;;27.50;44.20;;;;;;6178586;28;20121;-69
2022/06/13 07:45:07;;;;;;;2.17;1.50;;;27.50;44.30;;;;;;6181512;28;20089;-69
2022/06/13 07:48:08;;;;;;;1.90;1.52;;;27.50;44.30;;;;;;6179716;28;20028;-69
2022/06/13 07:51:09;;;;;;;7.68;1.88;;;27.60;44.20;;;;;;6184403;28;20102;-69
2022/06/13 07:54:10;;;;;;;4.38;1.42;;;27.60;44.20;;;;;;6193763;28;20029;-69
2022/06/13 07:57:12;;;;;;;7.82;1.90;;;27.60;44.40;;;;;;6178754;28;20035;-70
2022/06/13 08:00:23;;;;;;;4.15;1.42;;;27.60;44.50;;;;;;6161821;28;20124;-69
2022/06/13 08:03:28;;;;;;;3.20;1.60;;;27.60;44.60;;;;;;6194458;28;20065;-70
2022/06/13 08:06:29;;;;;;;3.97;1.35;;;27.80;44.60;;;;;;6179878;28;20347;-69
2022/06/13 08:09:30;;;;;;;4.53;1.80;;;28.00;44.40;;;;;;6192977;28;20022;-70
2022/06/13 08:12:31;;;;;;;4.05;2.13;;;28.20;44.20;;;;;;6160321;28;20049;-68
2022/06/13 08:15:32;;;;;;;4.63;1.45;;;28.40;43.80;;;;;;6194320;28;20065;-71
2022/06/13 08:18:34;;;;;;;3.35;1.30;;;28.70;43.00;;;;;;6190247;28;20022;-71
2022/06/13 08:21:37;;;;;;;3.30;1.40;;;28.80;42.20;;;;;;6193013;28;20026;-70
2022/06/13 08:24:38;;;;;;;3.10;2.25;;;28.80;41.60;;;;;;6198584;28;20299;-70
2022/06/13 08:27:39;;;;;;;8.18;1.92;;;28.80;41.50;;;;;;6177992;28;20107;-69
2022/06/13 08:30:51;;;;;;;2.25;1.30;;;28.90;41.30;;;;;;6180314;28;20388;-71
2022/06/13 08:33:53;;;;;;;3.92;1.77;;;28.90;41.30;;;;;;6185026;28;20459;-70
2022/06/13 08:36:54;;;;;;;8.50;2.03;;;28.90;41.10;;;;;;6208461;28;20160;-70
2022/06/13 08:39:55;;;;;;;2.90;1.98;;;28.90;41.60;;;;;;6197479;28;20030;-69
2022/06/13 08:43:03;;;;;;;4.63;1.60;;;28.90;41.60;;;;;;6202702;28;20033;-70
2022/06/13 08:46:31;;;;;;;3.58;2.10;;;29.00;41.30;;;;;;6202200;28;20052;-70
2022/06/13 08:49:39;;;;;;;7.90;1.95;;;29.10;41.20;;;;;;6121144;29;20050;-69
2022/06/13 08:52:55;;;;;;;4.97;2.40;;;29.20;42.30;;;;;;6134073;29;20119;-70
2022/06/13 08:56:01;;;;;;;5.30;1.92;;;29.30;42.80;;;;;;6138209;29;20038;-70
2022/06/13 08:59:23;;;;;;;4.93;2.15;;;29.30;43.40;;;;;;6131342;29;20459;-69
2022/06/13 09:02:48;;;;;;;5.63;2.50;;;29.30;43.70;;;;;;6135826;29;20087;-68
2022/06/13 09:06:15;;;;;;;3.28;2.20;;;29.30;44.30;;;;;;6135267;29;20034;-69
2022/06/13 09:09:26;;;;;;;3.50;2.25;;;29.30;44.60;;;;;;6113678;29;20103;-70
2022/06/13 09:12:55;;;;;;;5.28;2.45;;;29.30;44.70;;;;;;6137943;29;20028;-69
2022/06/13 09:16:17;;;;;;;10.48;2.83;;;29.30;45.00;;;;;;6091741;29;20044;-71
2022/06/13 09:19:26;;;;;;;5.60;2.75;;;29.40;45.10;;;;;;6099754;29;20040;-70
2022/06/13 09:23:12;;;;;;;5.47;2.58;;;29.30;45.20;;;;;;6111521;29;20168;-70
2022/06/13 09:26:23;;;;;;;3.72;2.50;;;29.30;45.50;;;;;;6120103;29;20407;-70
2022/06/13 09:29:30;;;;;;;7.65;2.80;;;29.30;45.50;;;;;;6153692;28;20710;-70
2022/06/13 09:33:00;;;;;;;3.88;2.70;;;29.50;45.50;;;;;;6142960;28;20046;-70
2022/06/13 09:36:13;;;;;;;7.70;2.47;;;29.60;45.40;;;;;;6161188;28;20050;-70
2022/06/13 09:39:15;;;;;;;7.40;3.38;;;29.70;45.30;;;;;;6144619;28;20043;-71
2022/06/13 09:42:31;;;;;;;6.80;2.80;;;29.70;45.20;;;;;;6147909;28;20038;-70
2022/06/13 09:45:48;;;;;;;3.92;2.40;;;29.80;45.10;;;;;;6159549;28;20070;-70
2022/06/13 09:49:11;;;;;;;3.05;2.22;;;29.80;45.20;;;;;;6156966;28;20035;-70
2022/06/13 09:52:25;;;;;;;5.43;3.10;;;29.80;45.20;;;;;;6142626;28;20324;-70
2022/06/13 09:55:44;;;;;;;7.22;2.95;;;29.80;45.20;;;;;;6168831;28;20022;-70
2022/06/13 09:59:21;;;;;;;4.63;2.60;;;29.90;45.20;;;;;;6183941;28;20034;-70
2022/06/13 10:02:34;;;;;;;7.15;2.40;;;30.00;45.10;;;;;;6165832;28;20065;-69
2022/06/13 10:05:51;;;;;;;4.18;2.78;;;29.90;45.00;;;;;;6182293;28;20015;-70
2022/06/13 10:09:29;;;;;;;3.65;2.20;;;30.00;45.00;;;;;;6179758;28;20018;-70
2022/06/13 10:12:54;;;;;;;4.68;2.50;;;30.00;45.00;;;;;;6170550;28;20027;-69
2022/06/13 10:16:23;;;;;;;3.20;2.55;;;30.10;44.90;;;;;;6205140;28;20034;-68
2022/06/13 10:19:38;;;;;;;5.57;2.10;;;30.10;44.90;;;;;;6176977;28;20029;-69
2022/06/13 10:23:15;;;;;;;6.05;2.20;;;30.10;44.90;;;;;;6198124;28;20093;-69
2022/06/13 10:26:21;;;;;;;2.90;2.22;;;30.10;44.90;;;;;;6178897;28;20022;-69
2022/06/13 10:29:46;;;;;;;7.55;2.70;;;30.20;44.70;;;;;;6192507;28;20018;-69
2022/06/13 10:32:56;;;;;;;4.85;2.58;;;30.30;44.70;;;;;;6202557;28;20069;-69
2022/06/13 10:36:20;;;;;;;12.90;2.95;;;30.30;44.60;;;;;;6187422;28;20018;-69
2022/06/13 10:39:25;;;;;;;5.32;2.67;;;30.40;44.50;;;;;;6197492;28;20046;-69
2022/06/13 10:42:30;;;;;;;5.22;2.35;;;30.40;44.30;;;;;;6184064;28;20024;-68
2022/06/13 10:45:36;;;;;;;7.75;2.65;;;30.50;44.30;;;;;;6209028;28;20029;-70
2022/06/13 10:48:54;;;;;;;6.95;2.53;;;30.50;44.10;;;;;;6190205;28;20033;-70
2022/06/13 10:52:04;;;;;;;6.07;2.17;;;30.50;44.00;;;;;;6189506;28;20041;-70
2022/06/13 10:55:13;;;;;;;7.72;2.30;;;30.60;44.00;;;;;;6183623;28;20042;-70
2022/06/13 10:58:24;;;;;;;4.72;2.53;;;30.60;44.00;;;;;;6200617;28;20073;-71
2022/06/13 11:01:28;;;;;;;2.83;2.10;;;30.60;44.00;;;;;;6205820;28;20044;-70
2022/06/13 11:04:35;;;;;;;4.55;2.25;;;30.60;43.90;;;;;;6174992;28;20022;-71
2022/06/13 11:07:55;;;;;;;10.55;2.60;;;31.10;43.30;;;;;;6197611;28;20085;-69
2022/06/13 11:10:59;;;;;;;4.55;2.28;;;32.20;41.50;;;;;;6182365;28;20034;-69
2022/06/13 11:14:00;;;;;;;6.95;2.13;;;33.10;39.70;;;;;;6207109;28;20477;-70
2022/06/13 11:24:00;;;;;;;3.95;1.80;;;34.80;36.50;;;;;;6200185;28;20026;-69
2022/06/13 11:30:27;;;;;;;8.23;2.22;;;35.40;35.20;;;;;;6201651;28;20313;-69
2022/06/13 11:33:36;;;;;;;2.88;1.88;;;35.60;34.50;;;;;;6177847;28;20070;-69
2022/06/13 11:36:38;;;;;;;6.57;1.90;;;35.70;34.30;;;;;;6180817;28;20033;-69
2022/06/13 11:39:42;;;;;;;3.65;2.03;;;35.90;33.90;;;;;;6183663;28;20164;-69
2022/06/13 11:42:51;;;;;;;8.73;2.00;;;35.90;33.70;;;;;;6184201;28;20022;-70
2022/06/13 11:45:58;;;;;;;5.97;2.10;;;35.80;33.70;;;;;;6200133;28;20042;-69
2022/06/13 11:49:19;;;;;;;3.55;1.70;;;35.80;33.60;;;;;;6198960;28;20387;-69
2022/06/13 11:55:58;;;;;;;6.57;1.70;;;36.00;33.20;;;;;;6197293;28;20340;-68
2022/06/13 11:59:05;;;;;;;8.65;1.67;;;36.10;33.10;;;;;;6200116;28;20030;-69
2022/06/13 12:02:15;;;;;;;;;;;35.90;33.10;;;;;;6189989;28;20433;-70
2022/06/13 12:05:36;;;;;;;9.77;1.30;;;35.90;33.00;;;;;;6189401;28;19905;-69
2022/06/13 12:08:38;;;;;;;7.05;1.58;;;35.80;33.20;;;;;;6203965;28;20074;-70
2022/06/13 12:11:54;;;;;;;5.72;1.90;;;35.80;33.10;;;;;;6183538;28;20041;-69
2022/06/13 12:14:56;;;;;;;6.13;1.70;;;36.10;32.90;;;;;;6193353;28;20165;-69
2022/06/13 12:18:06;;;;;;;4.35;1.48;;;36.40;32.40;;;;;;6175184;28;20108;-69
2022/06/13 12:21:21;;;;;;;4.72;1.67;;;36.90;31.60;;;;;;6176320;28;20448;-69
2022/06/13 12:24:41;;;;;;;7.20;2.38;;;37.10;31.10;;;;;;6182388;28;20022;-69
2022/06/13 12:27:58;;;;;;;2.72;1.67;;;37.20;30.90;;;;;;6203639;28;20022;-69
2022/06/13 12:31:08;;;;;;;4.60;2.03;;;37.30;31.10;;;;;;6198785;28;20470;-69
2022/06/13 12:34:21;;;;;;;2.67;1.73;;;37.40;30.40;;;;;;6177278;28;20046;-69
2022/06/13 12:37:36;;;;;;;7.00;1.50;;;37.20;30.30;;;;;;6193029;28;20033;-69
2022/06/13 12:41:11;;;;;;;4.38;1.70;;;37.30;30.30;;;;;;6195739;28;20085;-69
2022/06/13 12:44:24;;;;;;;5.38;1.63;;;37.50;30.00;;;;;;6187476;28;20023;-69
2022/06/13 12:47:24;;;;;;;4.28;1.50;;;37.60;29.80;;;;;;6198838;28;20466;-69
2022/06/13 12:50:34;;;;;;;2.97;1.88;;;37.70;29.50;;;;;;6195644;28;20023;-69
2022/06/13 12:53:48;;;;;;;8.50;1.73;;;37.60;29.50;;;;;;6178685;28;20365;-70
2022/06/13 12:57:07;;;;;;;3.13;1.75;;;37.60;29.40;;;;;;6168121;28;20034;-68
2022/06/13 13:00:11;;;;;;;3.63;1.70;;;38.00;29.10;;;;;;6197886;28;20053;-69
2022/06/13 13:03:30;;;;;;;7.13;2.00;;;38.50;28.60;;;;;;6169889;28;20057;-69
2022/06/13 13:06:55;;;;;;;4.25;1.63;;;38.80;28.30;;;;;;6178639;28;20328;-69
2022/06/13 13:10:12;;;;;;;5.30;1.42;;;39.10;28.10;;;;;;6176102;28;20185;-70
2022/06/13 13:13:30;;;;;;;3.35;1.30;;;39.60;27.30;;;;;;6194214;28;20031;-69
2022/06/13 13:16:37;;;;;;;5.28;1.60;;;40.10;26.60;;;;;;6195334;28;20023;-70
2022/06/13 13:19:53;;;;;;;5.73;1.77;;;40.20;26.20;;;;;;6177535;28;20061;-70
2022/06/13 13:23:15;;;;;;;8.70;1.50;;;40.60;25.90;;;;;;6189938;28;20068;-69
2022/06/13 13:26:28;;;;;;;3.63;1.25;;;40.80;25.40;;;;;;6184300;28;20052;-70
2022/06/13 13:29:37;;;;;;;4.53;1.08;;;40.90;25.20;;;;;;6198408;28;20104;-70
2022/06/13 13:32:41;;;;;;;9.43;1.20;;;41.20;24.90;;;;;;6193654;28;20054;-71
2022/06/13 13:36:02;;;;;;;1.95;1.17;;;41.80;24.60;;;;;;6183552;28;20018;-71
2022/06/13 13:39:11;;;;;;;3.42;1.67;;;42.60;23.90;;;;;;6201128;28;20026;-70
2022/06/13 13:42:18;;;;;;;2.63;1.30;;;43.20;23.00;;;;;;6177280;28;20038;-70
2022/06/13 13:45:31;;;;;;;4.72;1.58;;;43.70;22.50;;;;;;6197347;28;20034;-70
2022/06/13 13:48:45;;;;;;;1.88;1.23;;;44.10;22.10;;;;;;6176090;28;20369;-70
2022/06/13 13:52:00;;;;;;;2.17;1.00;;;44.50;22.00;;;;;;6185533;28;20321;-70
2022/06/13 13:55:10;;;;;;;3.28;1.92;;;45.10;21.40;;;;;;6179073;28;20035;-71
2022/06/13 13:58:22;;;;;;;7.40;1.88;;;45.40;21.00;;;;;;6198063;28;20026;-71
2022/06/13 14:01:25;;;;;;;6.88;2.13;;;45.30;20.60;;;;;;6200908;28;20345;-70
2022/06/13 14:04:32;;;;;;;3.35;1.10;;;44.80;20.70;;;;;;6207182;28;20045;-71
2022/06/13 14:07:52;;;;;;;8.65;1.45;;;44.30;21.00;;;;;;6202077;28;20339;-70
2022/06/13 14:10:55;;;;;;;6.45;1.67;;;43.90;21.00;;;;;;6198814;28;20030;-70
2022/06/13 14:14:06;;;;;;;6.40;1.35;;;43.80;21.10;;;;;;6201393;28;20149;-71
2022/06/13 14:17:07;;;;;;;6.45;1.33;;;43.60;21.10;;;;;;6200471;28;20030;-70
2022/06/13 14:20:23;;;;;;;5.80;1.52;;;43.70;21.10;;;;;;6202208;28;20026;-71
2022/06/13 14:23:35;;;;;;;3.80;1.33;;;44.00;20.80;;;;;;6197206;28;20411;-70
2022/06/13 14:26:58;;;;;;;8.07;1.20;;;44.20;20.50;;;;;;6184768;28;20426;-71
2022/06/13 14:37:05;;;;;;;;;;;44.80;19.80;;;;;;6203698;28;20027;-71
2022/06/13 14:40:13;;;;;;;4.97;1.95;;;44.70;19.70;;;;;;6179919;28;19916;-70
2022/06/13 14:43:41;;;;;;;3.92;1.52;;;44.70;19.60;;;;;;6189176;28;20026;-71
2022/06/13 14:47:01;;;;;;;6.65;1.45;;;44.80;19.60;;;;;;6197188;28;20073;-71
2022/06/13 14:50:03;;;;;;;2.65;1.20;;;45.20;19.40;;;;;;6200110;28;20049;-71
2022/06/13 14:53:32;;;;;;;9.65;1.42;;;45.10;19.30;;;;;;6196206;28;20133;-71
2022/06/13 14:56:39;;;;;;;1.55;1.02;;;44.80;19.40;;;;;;6182461;28;20094;-71
2022/06/13 15:00:04;;;;;;;3.38;1.30;;;44.90;19.30;;;;;;6178555;28;20023;-70
2022/06/13 15:03:07;;;;;;;6.40;1.55;;;44.70;19.20;;;;;;6174527;28;20030;-71
2022/06/13 15:06:11;;;;;;;4.70;1.30;;;44.40;19.30;;;;;;6181537;28;20120;-70
2022/06/13 15:09:21;;;;;;;4.00;1.40;;;44.10;19.60;;;;;;6198544;28;20021;-70
2022/06/13 15:12:28;;;;;;;5.20;1.38;;;44.10;19.60;;;;;;6179338;28;20347;-70
2022/06/13 15:15:32;;;;;;;4.32;1.10;;;44.10;19.30;;;;;;6195449;28;20050;-70
2022/06/13 15:18:37;;;;;;;3.38;1.25;;;43.60;19.50;;;;;;6203155;28;20022;-70
2022/06/13 15:21:53;;;;;;;1.65;1.20;;;42.90;20.40;;;;;;6201912;28;20052;-71
2022/06/13 15:24:57;;;;;;;3.50;1.23;;;42.30;20.30;;;;;;6181204;28;20038;-70
2022/06/13 15:28:00;;;;;;;6.82;1.48;;;42.00;20.50;;;;;;6183137;28;20033;-69
2022/06/13 15:31:07;;;;;;;4.80;1.10;;;42.00;20.60;;;;;;6199003;28;20064;-70
2022/06/13 15:34:08;;;;;;;2.78;1.30;;;41.90;20.60;;;;;;6181045;28;20043;-70
2022/06/13 15:37:09;;;;;;;6.28;1.45;;;42.00;20.50;;;;;;6194903;28;20034;-70
2022/06/13 15:40:19;;;;;;;3.08;1.40;;;42.20;20.20;;;;;;6205349;28;20027;-71
2022/06/13 15:43:36;;;;;;;4.15;1.33;;;42.20;20.20;;;;;;6189356;28;20022;-71
2022/06/13 15:47:01;;;;;;;1.50;1.20;;;42.10;20.20;;;;;;6164692;28;20027;-71
2022/06/13 15:50:06;;;;;;;9.38;1.40;;;41.90;20.20;;;;;;6200630;28;20030;-70
2022/06/13 15:53:25;;;;;;;2.47;1.20;;;41.70;20.50;;;;;;6192002;28;20022;-71
2022/06/13 15:56:37;;;;;;;5.15;1.27;;;41.50;20.50;;;;;;6178440;28;20435;-70
2022/06/13 15:59:50;;;;;;;4.43;1.55;;;41.40;20.70;;;;;;6181875;28;20043;-70
2022/06/13 16:02:51;;;;;;;2.80;1.40;;;41.70;20.50;;;;;;6203720;28;20023;-71
2022/06/13 16:05:58;;;;;;;2.88;1.58;;;41.80;20.20;;;;;;6193783;28;20042;-71
2022/06/13 16:09:00;;;;;;;3.10;1.52;;;41.80;20.10;;;;;;6191701;28;20022;-71
2022/06/13 16:12:09;;;;;;;3.63;1.52;;;41.80;20.40;;;;;;6199854;28;20133;-71
2022/06/13 16:15:14;;;;;;;6.00;1.05;;;41.80;20.20;;;;;;6195837;28;20070;-71
2022/06/13 16:18:33;;;;;;;4.18;1.00;;;42.00;20.20;;;;;;6178283;28;20050;-71
2022/06/13 16:21:34;;;;;;;6.45;1.58;;;42.30;19.90;;;;;;6194413;28;20357;-71
2022/06/13 16:24:39;;;;;;;2.53;1.08;;;42.50;19.70;;;;;;6170953;28;20018;-70
2022/06/13 16:27:41;;;;;;;4.65;1.48;;;42.50;19.60;;;;;;6201561;28;20028;-72
2022/06/13 16:30:45;;;;;;;4.05;1.45;;;42.60;19.50;;;;;;6195756;28;20526;-70
2022/06/13 16:33:51;;;;;;;3.47;0.98;;;42.40;19.50;;;;;;6193464;28;20039;-72
2022/06/13 16:37:03;;;;;;;2.75;1.25;;;42.10;19.80;;;;;;6181737;28;20029;-72
2022/06/13 16:40:50;;;;;;;3.45;1.40;;;41.80;19.90;;;;;;6199245;28;20443;-72
2022/06/13 16:43:53;;;;;;;6.53;1.23;;;41.40;20.10;;;;;;6175179;28;20026;-72
2022/06/13 16:46:57;;;;;;;3.92;1.45;;;40.90;20.40;;;;;;6193798;28;20081;-71
2022/06/13 16:50:04;;;;;;;3.40;1.40;;;40.70;20.70;;;;;;6195230;28;20106;-71
2022/06/13 16:53:12;;;;;;;3.15;1.10;;;40.50;20.80;;;;;;6202715;28;20036;-71
2022/06/13 16:56:18;;;;;;;4.07;1.40;;;40.40;20.80;;;;;;6199310;28;20451;-71
2022/06/13 16:59:26;;;;;;;2.85;1.40;;;40.20;20.90;;;;;;6197111;28;20089;-71
2022/06/13 17:02:33;;;;;;;1.98;1.40;;;39.20;21.60;;;;;;6180034;28;20070;-71
2022/06/13 17:05:52;;;;;;;4.38;1.73;;;37.90;22.70;;;;;;6180269;28;20029;-71
2022/06/13 17:09:22;;;;;;;7.75;1.58;;;36.70;23.70;;;;;;6196179;28;20138;-71